Terminal Aerodrome Forecast
Issued by NWS Pittsburgh, PA

Current Version | Previous Version | Graphics & Text | Print | Product List | Glossary On
Versions: 1 2 3 4 5 6 7 8 9 10 11 12 13 14 15 16 17 18 19 20 21 22 23 24 25 26 27 28
000
FTUS41 KPBZ 230242 AAA
TAFPIT
TAF AMD
KPIT 230242Z 2303/2406 18004KT P6SM SCT140 BKN250
     FM230800 19006KT 5SM -SHRA OVC015
     FM231200 21008KT 3SM -SHRA BR OVC010
     FM231600 23012G20KT 3SM -SHRA VCTS OVC010CB
     FM240000 23008KT 3SM -SHRA BR OVC008=

USA.gov is the U.S. government's official web portal to all federal, state and local government web resources and services.